createdAt,value
2023-05-09T00:02:02.187Z,7.28
2023-05-09T00:04:30.217Z,7.13
2023-05-09T00:06:58.224Z,7.10
2023-05-09T00:09:26.657Z,6.70
2023-05-09T00:11:54.485Z,7.38
2023-05-09T00:14:22.347Z,7.93
2023-05-09T00:16:50.758Z,8.02
2023-05-09T00:19:20.135Z,7.38
2023-05-09T00:21:48.106Z,7.55
2023-05-09T00:24:15.897Z,7.53
2023-05-09T00:26:43.680Z,7.82
2023-05-09T00:29:11.522Z,7.60
2023-05-09T00:31:39.562Z,7.30
2023-05-09T00:34:07.442Z,7.72
2023-05-09T00:36:36.792Z,8.20
2023-05-09T00:39:05.537Z,7.55
2023-05-09T00:41:33.378Z,7.82
2023-05-09T00:44:01.231Z,7.57
2023-05-09T00:46:29.290Z,8.10
2023-05-09T00:48:57.517Z,7.22
2023-05-09T00:51:26.367Z,8.02
2023-05-09T00:53:55.769Z,8.05
2023-05-09T00:56:23.739Z,7.88
2023-05-09T00:58:52.051Z,8.02
2023-05-09T01:01:19.957Z,7.22
2023-05-09T01:03:48.565Z,8.50
2023-05-09T01:06:23.849Z,7.55
2023-05-09T01:09:00.686Z,8.13
2023-05-09T01:11:33.770Z,8.00
2023-05-09T01:15:10.463Z,8.50
2023-05-09T01:17:50.861Z,7.95
2023-05-09T01:20:27.404Z,7.53
2023-05-09T01:23:11.241Z,8.05
2023-05-09T01:26:04.700Z,8.02
2023-05-09T01:28:46.427Z,8.32
2023-05-09T01:31:17.831Z,8.10
2023-05-09T01:33:49.865Z,7.93
2023-05-09T01:36:20.304Z,8.43
2023-05-09T01:38:51.290Z,7.65
2023-05-09T01:41:20.811Z,8.02
2023-05-09T01:43:51.704Z,7.82
2023-05-09T01:46:23.793Z,8.20
2023-05-09T01:48:53.309Z,8.13
2023-05-09T01:51:22.544Z,8.25
2023-05-09T01:53:52.614Z,8.20
2023-05-09T01:56:21.982Z,8.68
2023-05-09T01:58:51.923Z,8.35
2023-05-09T02:01:21.967Z,8.10
2023-05-09T02:03:53.560Z,8.15
2023-05-09T02:06:24.230Z,8.52
2023-05-09T02:08:52.730Z,7.60
2023-05-09T02:11:21.126Z,8.52
2023-05-09T02:13:50.839Z,9.02
2023-05-09T02:16:20.649Z,8.95
2023-05-09T02:18:50.123Z,8.93
2023-05-09T02:21:18.235Z,9.45
2023-05-09T02:23:46.483Z,8.60
2023-05-09T02:26:15.798Z,8.52
2023-05-09T02:28:46.061Z,8.00
2023-05-09T02:31:15.678Z,8.48
2023-05-09T02:33:44.607Z,8.18
2023-05-09T02:36:15.614Z,8.77
2023-05-09T02:38:45.477Z,9.45
2023-05-09T02:41:14.626Z,8.45
2023-05-09T02:43:42.690Z,8.68
2023-05-09T02:46:11.334Z,9.70
2023-05-09T02:48:39.233Z,9.88
2023-05-09T02:51:07.401Z,9.77
2023-05-09T02:53:36.674Z,9.38
2023-05-09T02:56:04.946Z,10.20
2023-05-09T02:58:32.729Z,10.80
2023-05-09T03:01:00.630Z,10.35
2023-05-09T03:03:28.555Z,9.68
2023-05-09T03:05:56.807Z,10.77
2023-05-09T03:08:24.875Z,10.45
2023-05-09T03:10:54.039Z,10.45
2023-05-09T03:13:22.417Z,10.65
2023-05-09T03:15:50.335Z,9.77
2023-05-09T03:18:18.835Z,10.02
2023-05-09T03:20:46.682Z,10.55
2023-05-09T03:23:14.543Z,12.02
2023-05-09T03:25:42.456Z,12.15
2023-05-09T03:28:11.655Z,11.80
2023-05-09T03:30:40.353Z,12.25
2023-05-09T03:33:11.943Z,11.00
2023-05-09T03:35:39.749Z,10.88
2023-05-09T03:38:08.295Z,11.43
2023-05-09T03:40:36.105Z,11.35
2023-05-09T03:43:08.417Z,10.27
2023-05-09T03:45:39.126Z,11.23
2023-05-09T03:48:09.825Z,11.48
2023-05-09T03:50:41.130Z,11.90
2023-05-09T03:53:09.902Z,11.80
2023-05-09T03:55:39.204Z,11.70
2023-05-09T03:58:07.324Z,10.85
2023-05-09T04:00:40.056Z,11.40
2023-05-09T04:03:13.762Z,10.93
2023-05-09T04:08:22.810Z,9.98
2023-05-09T04:10:51.019Z,10.68
2023-05-09T04:13:19.383Z,11.70
2023-05-09T04:15:48.861Z,11.85
2023-05-09T04:18:17.006Z,11.30
2023-05-09T04:20:45.710Z,11.00
2023-05-09T04:23:14.024Z,12.30
2023-05-09T04:25:42.475Z,11.80
2023-05-09T04:28:10.248Z,11.50
2023-05-09T04:30:38.302Z,11.35
2023-05-09T04:33:07.706Z,11.68
2023-05-09T04:35:35.742Z,10.98
2023-05-09T04:38:04.836Z,10.90
2023-05-09T04:40:33.216Z,9.95
2023-05-09T04:43:01.976Z,10.95
2023-05-09T04:45:31.844Z,10.50
2023-05-09T04:48:01.170Z,10.52
2023-05-09T04:50:31.836Z,9.85
2023-05-09T04:52:59.595Z,10.10
2023-05-09T04:55:27.389Z,10.52
2023-05-09T04:57:56.745Z,10.98
2023-05-09T05:00:24.848Z,10.68
2023-05-09T05:02:52.746Z,10.88
2023-05-09T05:05:25.035Z,10.57
2023-05-09T05:07:55.177Z,10.27
2023-05-09T05:10:27.273Z,10.70
2023-05-09T05:13:03.338Z,10.98
2023-05-09T05:15:31.273Z,10.43
2023-05-09T05:18:00.015Z,11.18
2023-05-09T05:20:32.294Z,9.73
2023-05-09T05:23:02.037Z,9.77
2023-05-09T05:25:29.936Z,10.63
2023-05-09T05:27:58.878Z,9.93
2023-05-09T05:30:27.423Z,10.18
2023-05-09T05:32:55.472Z,10.07
2023-05-09T05:35:24.696Z,10.30
2023-05-09T05:37:53.920Z,10.48
2023-05-09T05:40:24.365Z,11.07
2023-05-09T05:42:54.368Z,10.45
2023-05-09T05:45:22.432Z,10.98
2023-05-09T05:47:54.444Z,10.45
2023-05-09T05:50:24.067Z,11.07
2023-05-09T05:52:51.876Z,9.82
2023-05-09T05:55:20.540Z,11.27
2023-05-09T05:57:49.726Z,10.52
2023-05-09T06:00:18.228Z,10.23
2023-05-09T06:02:50.745Z,10.75
2023-05-09T06:05:25.047Z,10.52
2023-05-09T06:07:53.467Z,9.70
2023-05-09T06:10:21.377Z,10.32
2023-05-09T06:12:50.759Z,10.25
2023-05-09T06:15:19.005Z,10.15
2023-05-09T06:17:50.001Z,9.85
2023-05-09T06:20:17.957Z,9.70
2023-05-09T06:22:45.784Z,10.07
2023-05-09T06:25:13.805Z,9.23
2023-05-09T06:27:41.821Z,9.32
2023-05-09T06:30:24.854Z,10.23
2023-05-09T06:32:53.985Z,9.05
2023-05-09T06:35:21.986Z,8.98
2023-05-09T06:37:50.192Z,8.43
2023-05-09T06:40:18.174Z,8.75
2023-05-09T06:42:46.151Z,9.40
2023-05-09T06:45:15.616Z,9.10
2023-05-09T06:47:43.709Z,8.88
2023-05-09T06:50:11.865Z,9.65
2023-05-09T06:52:39.758Z,9.45
2023-05-09T06:55:09.306Z,8.50
2023-05-09T06:57:37.411Z,9.63
2023-05-09T07:00:11.656Z,8.90
2023-05-09T07:02:42.242Z,9.32
2023-05-09T07:05:13.471Z,8.60
2023-05-09T07:07:41.410Z,8.55
2023-05-09T07:10:12.372Z,9.05
2023-05-09T07:12:41.090Z,9.07
2023-05-09T07:15:10.930Z,8.77
2023-05-09T07:17:40.676Z,8.75
2023-05-09T07:20:09.499Z,8.73
2023-05-09T07:22:37.736Z,8.57
2023-05-09T07:25:08.418Z,8.18
2023-05-09T07:27:36.385Z,8.10
2023-05-09T07:30:04.528Z,8.52
2023-05-09T07:32:32.792Z,8.23
2023-05-09T07:35:04.048Z,7.57
2023-05-09T07:37:33.833Z,7.57
2023-05-09T07:40:01.686Z,7.97
2023-05-09T07:42:30.333Z,7.57
2023-05-09T07:44:59.167Z,7.40
2023-05-09T07:47:27.245Z,7.47
2023-05-09T07:49:55.277Z,7.68
2023-05-09T07:52:24.571Z,7.43
2023-05-09T07:54:52.462Z,6.80
2023-05-09T07:57:20.381Z,7.15
2023-05-09T07:59:48.251Z,7.15
2023-05-09T08:02:16.129Z,6.55
2023-05-09T08:04:44.016Z,6.85
2023-05-09T08:07:12.014Z,6.10
2023-05-09T08:09:41.323Z,5.60
2023-05-09T08:12:09.588Z,5.47
2023-05-09T08:14:37.471Z,5.55
2023-05-09T08:17:05.356Z,4.93
2023-05-09T08:19:33.230Z,5.38
2023-05-09T08:22:01.440Z,5.35
2023-05-09T08:24:29.432Z,4.78
2023-05-09T08:26:58.828Z,4.50
2023-05-09T08:29:26.724Z,4.57
2023-05-09T08:31:54.578Z,3.80
2023-05-09T08:34:22.385Z,3.75
2023-05-09T08:36:50.414Z,3.58
2023-05-09T08:39:18.336Z,3.28
2023-05-09T08:41:46.739Z,2.92
2023-05-09T08:44:16.057Z,2.92
2023-05-09T08:46:46.415Z,3.05
2023-05-09T08:49:14.839Z,3.10
2023-05-09T08:51:42.699Z,3.00
2023-05-09T08:54:11.254Z,3.05
2023-05-09T08:56:39.529Z,2.78
2023-05-09T08:59:07.716Z,2.50
2023-05-09T09:01:37.177Z,2.45
2023-05-09T09:04:07.092Z,2.40
2023-05-09T09:06:35.871Z,2.58
2023-05-09T09:09:07.032Z,2.60
2023-05-09T09:11:36.233Z,2.53
2023-05-09T09:14:10.716Z,2.60
2023-05-09T09:16:41.221Z,2.80
2023-05-09T09:19:17.604Z,2.60
2023-05-09T09:21:47.847Z,2.40
2023-05-09T09:24:19.259Z,2.50
2023-05-09T09:26:48.983Z,2.80
2023-05-09T09:29:18.512Z,2.95
2023-05-09T09:31:48.910Z,2.72
2023-05-09T09:34:22.784Z,3.08
2023-05-09T09:36:52.575Z,2.50
2023-05-09T09:39:21.713Z,2.20
2023-05-09T09:41:50.086Z,2.60
2023-05-09T09:44:20.843Z,2.17
2023-05-09T09:46:52.155Z,2.20
2023-05-09T09:49:21.760Z,2.30
2023-05-09T09:51:53.360Z,2.00
2023-05-09T09:54:21.981Z,2.10
2023-05-09T09:56:51.916Z,2.53
2023-05-09T09:59:21.269Z,2.30
2023-05-09T10:02:04.181Z,2.33
2023-05-09T10:04:35.474Z,1.83
2023-05-09T10:07:05.928Z,2.20
2023-05-09T10:09:35.067Z,2.13
2023-05-09T10:12:04.484Z,2.53
2023-05-09T10:14:35.295Z,2.55
2023-05-09T10:17:06.470Z,2.40
2023-05-09T10:19:39.054Z,2.35
2023-05-09T10:24:43.175Z,1.95
2023-05-09T10:27:12.946Z,2.30
2023-05-09T10:29:51.218Z,2.20
2023-05-09T10:32:27.471Z,2.25
2023-05-09T10:35:01.206Z,1.90
2023-05-09T10:37:30.987Z,2.17
2023-05-09T10:40:00.234Z,2.22
2023-05-09T10:42:28.530Z,2.10
2023-05-09T10:44:57.841Z,2.17
2023-05-09T10:47:29.052Z,1.90
2023-05-09T10:49:57.624Z,1.90
2023-05-09T10:52:25.408Z,2.08
2023-05-09T10:55:01.440Z,1.80
2023-05-09T10:57:31.186Z,2.10
2023-05-09T11:00:00.144Z,1.83
2023-05-09T11:02:32.259Z,1.85
2023-05-09T11:05:17.558Z,1.92
2023-05-09T11:07:45.849Z,2.15
2023-05-09T11:10:17.645Z,1.90
2023-05-09T11:12:57.946Z,2.55
2023-05-09T11:15:27.566Z,1.88
2023-05-09T11:18:08.288Z,2.00
2023-05-09T11:20:37.293Z,2.35
2023-05-09T11:23:06.035Z,2.15
2023-05-09T11:25:33.959Z,2.20
2023-05-09T11:28:02.816Z,2.13
2023-05-09T11:30:40.534Z,2.08
2023-05-09T11:33:23.924Z,1.85
2023-05-09T11:36:16.492Z,2.10
2023-05-09T11:38:44.517Z,1.70
2023-05-09T11:41:12.657Z,1.83
2023-05-09T11:43:41.501Z,1.70
2023-05-09T11:46:09.606Z,1.80
2023-05-09T11:48:42.956Z,1.73
2023-05-09T11:51:18.022Z,1.92
2023-05-09T11:53:46.988Z,1.67
2023-05-09T11:56:15.432Z,2.10
2023-05-09T11:58:44.102Z,2.08
2023-05-09T12:01:12.805Z,2.00
2023-05-09T12:03:45.319Z,1.73
2023-05-09T12:06:17.239Z,1.88
2023-05-09T12:08:45.697Z,2.30
2023-05-09T12:11:15.108Z,1.83
2023-05-09T12:13:48.170Z,2.00
2023-05-09T12:16:17.167Z,1.90
2023-05-09T12:18:51.654Z,2.00
2023-05-09T12:21:20.147Z,2.10
2023-05-09T12:23:50.909Z,1.90
2023-05-09T12:26:19.021Z,1.98
2023-05-09T12:28:47.232Z,1.90
2023-05-09T12:31:15.615Z,2.53
2023-05-09T12:33:44.081Z,2.22
2023-05-09T12:36:15.913Z,1.90
2023-05-09T12:38:54.134Z,1.83
2023-05-09T12:43:58.169Z,1.88
2023-05-09T12:46:26.136Z,1.98
2023-05-09T12:48:55.613Z,1.90
2023-05-09T12:51:24.996Z,1.80
2023-05-09T12:53:53.998Z,1.70
2023-05-09T12:56:23.567Z,1.98
2023-05-09T12:58:53.176Z,1.95
2023-05-09T13:01:22.145Z,1.80
2023-05-09T13:03:53.741Z,2.00
2023-05-09T13:06:24.126Z,1.80
2023-05-09T13:09:01.227Z,2.00
2023-05-09T13:11:29.790Z,1.80
2023-05-09T13:13:57.858Z,1.80
2023-05-09T13:16:25.772Z,1.92
2023-05-09T13:18:53.576Z,2.00
2023-05-09T13:21:21.418Z,2.40
2023-05-09T13:23:50.148Z,2.35
2023-05-09T13:26:19.556Z,2.92
2023-05-09T13:28:47.480Z,3.85
2023-05-09T13:31:15.508Z,3.38
2023-05-09T13:33:43.799Z,3.83
2023-05-09T13:36:11.896Z,3.85
2023-05-09T13:38:40.848Z,4.00
2023-05-09T13:41:09.146Z,4.25
2023-05-09T13:43:42.519Z,4.38
2023-05-09T13:46:10.532Z,4.93
2023-05-09T13:48:39.571Z,4.28
2023-05-09T13:51:07.934Z,4.07
2023-05-09T13:53:38.116Z,4.00
2023-05-09T13:56:09.268Z,4.30
2023-05-09T13:58:38.573Z,4.32
2023-05-09T14:01:07.332Z,4.03
2023-05-09T14:03:35.811Z,3.65
2023-05-09T14:06:04.264Z,4.05
2023-05-09T14:08:32.366Z,4.03
2023-05-09T14:11:00.240Z,3.92
2023-05-09T14:13:28.334Z,4.82
2023-05-09T14:15:57.965Z,4.82
2023-05-09T14:18:25.804Z,5.22
2023-05-09T14:20:53.689Z,5.40
2023-05-09T14:23:22.401Z,5.32
2023-05-09T14:25:50.663Z,4.55
2023-05-09T14:28:18.508Z,4.05
2023-05-09T14:30:46.331Z,3.47
2023-05-09T14:33:15.547Z,3.15
2023-05-09T14:35:43.367Z,3.25
2023-05-09T14:38:12.482Z,3.80
2023-05-09T14:40:40.687Z,3.25
2023-05-09T14:43:09.492Z,3.50
2023-05-09T14:45:37.369Z,3.60
2023-05-09T14:48:05.339Z,3.22
2023-05-09T14:50:34.569Z,3.28
2023-05-09T14:53:02.436Z,3.20
2023-05-09T14:55:31.323Z,3.67
2023-05-09T14:57:59.501Z,3.55
2023-05-09T15:00:28.438Z,3.85
2023-05-09T15:02:57.077Z,3.65
2023-05-09T15:05:25.178Z,3.85
2023-05-09T15:07:54.630Z,3.53
2023-05-09T15:10:22.876Z,3.45
2023-05-09T15:12:50.774Z,3.25
2023-05-09T15:15:20.667Z,3.28
2023-05-09T15:17:48.513Z,3.40
2023-05-09T15:20:17.602Z,3.22
2023-05-09T15:22:46.015Z,3.22
2023-05-09T15:25:16.312Z,2.92
2023-05-09T15:27:44.141Z,3.40
2023-05-09T15:30:12.865Z,3.10
2023-05-09T15:32:41.229Z,3.20
2023-05-09T15:35:09.890Z,3.45
2023-05-09T15:37:37.897Z,3.00
2023-05-09T15:40:07.508Z,3.53
2023-05-09T15:42:37.228Z,3.40
2023-05-09T15:45:05.747Z,3.53
2023-05-09T15:47:33.952Z,3.72
2023-05-09T15:50:01.956Z,3.97
2023-05-09T15:52:29.775Z,3.50
2023-05-09T15:54:58.050Z,3.28
2023-05-09T15:57:26.117Z,3.42
2023-05-09T15:59:55.935Z,3.70
2023-05-09T16:02:24.114Z,3.40
2023-05-09T16:04:52.206Z,3.25
2023-05-09T16:07:20.837Z,3.28
2023-05-09T16:09:48.941Z,3.00
2023-05-09T16:12:17.150Z,2.95
2023-05-09T16:14:45.480Z,2.97
2023-05-09T16:17:14.713Z,2.85
2023-05-09T16:19:42.726Z,2.78
2023-05-09T16:22:10.924Z,2.83
2023-05-09T16:24:38.757Z,2.78
2023-05-09T16:27:06.631Z,2.80
2023-05-09T16:29:34.610Z,2.53
2023-05-09T16:32:02.651Z,3.03
2023-05-09T16:34:31.987Z,3.00
2023-05-09T16:37:00.009Z,2.90
2023-05-09T16:39:28.927Z,2.78
2023-05-09T16:41:56.920Z,2.85
2023-05-09T16:44:25.713Z,2.65
2023-05-09T16:46:53.682Z,2.78
2023-05-09T16:49:21.528Z,2.40
2023-05-09T16:51:50.727Z,2.38
2023-05-09T16:54:18.637Z,2.25
2023-05-09T16:56:46.513Z,2.15
2023-05-09T16:59:14.568Z,2.30
2023-05-09T17:01:42.467Z,2.33
2023-05-09T17:04:10.339Z,2.35
2023-05-09T17:06:38.227Z,1.70
2023-05-09T17:09:07.633Z,1.70
2023-05-09T17:11:35.585Z,1.80
2023-05-09T17:14:04.224Z,1.52
2023-05-09T17:16:32.133Z,2.05
2023-05-09T17:19:03.840Z,1.95
2023-05-09T17:21:32.305Z,2.37
2023-05-09T17:24:01.957Z,2.78
2023-05-09T17:26:31.664Z,2.60
2023-05-09T17:28:59.533Z,2.35
2023-05-09T17:31:27.476Z,2.47
2023-05-09T17:33:55.465Z,2.45
2023-05-09T17:36:23.477Z,2.65
2023-05-09T17:38:51.341Z,1.73
2023-05-09T17:41:19.151Z,2.60
2023-05-09T17:43:48.302Z,2.90
2023-05-09T17:46:16.155Z,2.70
2023-05-09T17:48:44.526Z,2.92
2023-05-09T17:51:12.488Z,2.75
2023-05-09T17:53:40.330Z,2.50
2023-05-09T17:56:08.254Z,2.65
2023-05-09T17:58:36.300Z,2.85
2023-05-09T18:01:05.780Z,2.75
2023-05-09T18:03:34.005Z,2.80
2023-05-09T18:06:02.225Z,2.75
2023-05-09T18:08:30.570Z,2.63
2023-05-09T18:10:58.905Z,2.47
2023-05-09T18:13:26.821Z,2.40
2023-05-09T18:15:59.343Z,2.30
2023-05-09T18:20:56.830Z,1.40
2023-05-09T18:23:25.628Z,1.20
2023-05-09T18:25:54.088Z,1.20
2023-05-09T18:28:24.739Z,1.10
2023-05-09T18:30:54.394Z,1.02
2023-05-09T18:33:23.381Z,1.00
2023-05-09T18:35:53.585Z,1.40
2023-05-09T18:38:21.579Z,1.50
2023-05-09T18:40:51.622Z,1.50
2023-05-09T18:43:20.782Z,1.20
2023-05-09T18:45:49.229Z,1.17
2023-05-09T18:48:17.252Z,1.10
2023-05-09T18:50:45.133Z,1.00
2023-05-09T18:53:14.319Z,0.90
2023-05-09T18:55:42.809Z,1.10
2023-05-09T18:58:10.973Z,0.93
2023-05-09T19:00:40.087Z,1.10
2023-05-09T19:03:08.034Z,1.02
2023-05-09T19:05:36.030Z,1.00
2023-05-09T19:08:04.229Z,0.77
2023-05-09T19:10:34.195Z,0.80
2023-05-09T19:13:02.196Z,0.80
2023-05-09T19:15:30.241Z,0.85
2023-05-09T19:17:58.148Z,0.80
2023-05-09T19:20:26.288Z,0.65
2023-05-09T19:22:54.132Z,1.00
2023-05-09T19:25:22.069Z,0.75
2023-05-09T19:27:53.783Z,0.80
2023-05-09T19:30:22.113Z,1.00
2023-05-09T19:32:49.998Z,0.80
2023-05-09T19:35:18.158Z,0.73
2023-05-09T19:37:46.083Z,0.40
2023-05-09T19:40:14.729Z,0.47
2023-05-09T19:42:42.859Z,0.30
2023-05-09T19:45:13.213Z,0.40
2023-05-09T19:47:41.573Z,0.70
2023-05-09T19:50:10.882Z,0.50
2023-05-09T19:52:39.160Z,0.30
2023-05-09T19:55:08.082Z,0.57
2023-05-09T19:57:35.981Z,0.43
2023-05-09T20:00:07.652Z,0.50
2023-05-09T20:02:36.896Z,0.50
2023-05-09T20:05:04.772Z,0.57
2023-05-09T20:07:32.722Z,0.32
2023-05-09T20:10:00.605Z,0.52
2023-05-09T20:12:30.234Z,0.43
2023-05-09T20:14:58.467Z,0.50
2023-05-09T20:17:26.439Z,0.60
2023-05-09T20:19:55.708Z,0.65
2023-05-09T20:22:24.040Z,0.65
2023-05-09T20:24:52.076Z,0.60
2023-05-09T20:27:19.978Z,0.75
2023-05-09T20:29:48.146Z,0.70
2023-05-09T20:32:16.223Z,0.95
2023-05-09T20:34:44.004Z,0.90
2023-05-09T20:37:13.297Z,0.90
2023-05-09T20:39:41.173Z,1.10
2023-05-09T20:42:09.030Z,0.95
2023-05-09T20:44:37.587Z,1.10
2023-05-09T20:47:05.640Z,0.90
2023-05-09T20:49:33.447Z,1.00
2023-05-09T20:52:01.255Z,1.10
2023-05-09T20:54:30.930Z,1.10
2023-05-09T20:56:58.748Z,1.10
2023-05-09T20:59:26.644Z,1.10
2023-05-09T21:01:55.555Z,1.10
2023-05-09T21:04:23.470Z,1.10
2023-05-09T21:06:51.317Z,1.30
2023-05-09T21:09:19.232Z,1.20
2023-05-09T21:11:48.414Z,1.17
2023-05-09T21:14:16.249Z,0.98
2023-05-09T21:16:45.123Z,1.30
2023-05-09T21:19:12.938Z,1.27
2023-05-09T21:21:40.822Z,1.40
2023-05-09T21:24:09.731Z,1.25
2023-05-09T21:26:37.722Z,1.58
2023-05-09T21:29:06.950Z,1.40
2023-05-09T21:31:34.942Z,1.40
2023-05-09T21:34:02.864Z,1.60
2023-05-09T21:36:30.740Z,1.88
2023-05-09T21:38:58.471Z,1.58
2023-05-09T21:41:27.755Z,1.70
2023-05-09T21:43:56.126Z,1.80
2023-05-09T21:46:25.488Z,2.10
2023-05-09T21:48:54.218Z,1.95
2023-05-09T21:51:22.116Z,1.85
2023-05-09T21:53:49.909Z,2.42
2023-05-09T21:56:17.730Z,2.10
2023-05-09T21:58:45.626Z,2.30
2023-05-09T22:01:13.596Z,2.15
2023-05-09T22:03:42.910Z,2.30
2023-05-09T22:06:11.543Z,2.38
2023-05-09T22:08:39.342Z,2.20
2023-05-09T22:11:07.748Z,2.10
2023-05-09T22:13:36.598Z,2.22
2023-05-09T22:16:04.764Z,2.33
2023-05-09T22:18:32.576Z,2.50
2023-05-09T22:21:02.015Z,2.67
2023-05-09T22:23:29.784Z,2.60
2023-05-09T22:25:57.536Z,2.70
2023-05-09T22:28:25.363Z,2.80
2023-05-09T22:30:53.169Z,2.55
2023-05-09T22:33:21.440Z,2.88
2023-05-09T22:35:49.306Z,2.33
2023-05-09T22:38:18.445Z,2.63
2023-05-09T22:40:46.314Z,2.67
2023-05-09T22:43:14.153Z,2.72
2023-05-09T22:45:41.970Z,3.00
2023-05-09T22:48:09.838Z,2.78
2023-05-09T22:50:37.695Z,2.83
2023-05-09T22:53:05.626Z,3.10
2023-05-09T22:55:34.789Z,2.53
2023-05-09T22:58:02.625Z,2.92
2023-05-09T23:00:30.547Z,3.00
2023-05-09T23:02:59.311Z,3.13
2023-05-09T23:05:27.332Z,3.45
2023-05-09T23:07:55.113Z,3.35
2023-05-09T23:10:22.989Z,3.10
2023-05-09T23:12:52.139Z,2.92
2023-05-09T23:15:20.282Z,3.05
2023-05-09T23:17:48.061Z,3.28
2023-05-09T23:20:16.138Z,3.13
2023-05-09T23:22:44.177Z,3.40
2023-05-09T23:25:11.980Z,3.33
2023-05-09T23:27:40.833Z,3.55
2023-05-09T23:30:11.591Z,3.58
2023-05-09T23:32:39.512Z,3.53
2023-05-09T23:35:08.095Z,4.22
2023-05-09T23:37:35.944Z,4.18
2023-05-09T23:40:04.138Z,3.97
2023-05-09T23:42:32.070Z,3.42
2023-05-09T23:45:00.752Z,3.67
2023-05-09T23:47:30.020Z,3.58
2023-05-09T23:49:58.038Z,3.20
2023-05-09T23:52:26.129Z,3.70
2023-05-09T23:54:53.892Z,3.85
2023-05-09T23:57:21.760Z,3.70
2023-05-09T23:59:49.574Z,3.78
